Terminal Aerodrome Forecast
Issued by NWS

Home | Current Version | Previous Version | Text Only | Print | Product List | Glossary On
Versions: 1 2 3 4 5 6 7 8 9 10 11 12
000
FTUS43 KICT 241145
TAFSLN
TAF
KSLN 241145Z 2412/2512 15009KT P6SM SCT040 BKN300
     FM241400 17017G26KT P6SM SCT040 OVC300
     FM241700 19022G30KT P6SM BKN050
     FM242200 19017G22KT P6SM SCT050 OVC100
     FM250200 17009KT P6SM OVC080=

USA.gov is the U.S. government's official web portal to all federal, state and local government web resources and services.